Chestnut, Illinois
Current Conditions -  °F | °C
As of 10:55 PM on Saturday 20 Dec 2014 (Local Time) from KAAA Reporting Station
Overcast Overcast  
Wind Chill: 28°   Ceiling: 3300
Heat Index: 35°   Visibility: 7mi
Dew Point: 31°   Wind: 8mph
Humidity: 88%   Direction: 160°SSE
Pressure: 30.26"   Gusts: NA
Location:  40.05°N, 89.19°W
Report Text: KAAA 210455Z AUTO 16007KT 7SM OVC033 01/00 A3026 RMK AO2 T00141004
Loading
Personal Weather Stations






























Interactive Weather Map New forecast layout! Learn more

10-Day Weather Forecast

Advertisements
Track Severe Weather on mobile